UPSVAC Airport Information Service

Philadelphia International Airport (1000-1099)

ICAO: KPHL Country: United States
Latitude: 39.8719 Longitude: -75.2411
Latest Arrival : UPS2945 (KTPA-KPHL) Latest Departure : UPS3193 (KPHL-KMIA)


WX CaptureLIVE
Data provided by noaa.gov | Fetched at 14:43:25

METAR : KPHL 141354Z 23008KT 10SM SCT110 BKN150 BKN250 15/09 A3007 RMK AO2 SLP180 T01500094 VISNO W $

TAF : KPHL 141120Z 1412/1518 23006KT P6SM BKN080 FM141700 23008KT P6SM BKN050 FM142000 21007KT P6SM VCSH BKN015 FM150200 19005KT 5SM -RA BR OVC008 FM150600 16005KT 3SM -RA BR OVC006 FM151500 23005KT 6SM -SHRA BR BKN010


Runway Data for KPHL
Data provided by openaviationdata.com

Runway ID Mag Var Hdg Length Elevation Surface ILS Freq ILS Id ILS Slope
8 -10 85° 4993 ft 36 ft Asphalt -- -- --
09L -10 85° 9488 ft 36 ft Concrete 108.95 IVII 3
09R -10 85° 10486 ft 36 ft Asphalt 109.3 IPHL 3
17 -10 169° 6503 ft 36 ft Concrete 108.75 IMYY 3
26 -10 265° 4993 ft 36 ft Asphalt 111.55 ILLH 3
27L -10 265° 10486 ft 36 ft Asphalt 109.3 IGLC 3
27R -10 265° 9488 ft 36 ft Concrete 108.95 IPDP 3
35 -10 349° 6503 ft 36 ft Concrete -- -- --

Philadelphia International Airport (1000-1099), United States
Use only for reference purposes



Not for navigational purposes.